sensor_id;sensor_type;location;lat;lon;timestamp;temperature;humidity
9103;DHT22;4587;51.434;6.788;2023-04-06T00:01:37;5.30;99.90
9103;DHT22;4587;51.434;6.788;2023-04-06T00:04:03;5.30;99.90
9103;DHT22;4587;51.434;6.788;2023-04-06T00:06:29;5.30;99.90
9103;DHT22;4587;51.434;6.788;2023-04-06T00:08:58;5.30;99.90
9103;DHT22;4587;51.434;6.788;2023-04-06T00:11:24;5.20;99.90
9103;DHT22;4587;51.434;6.788;2023-04-06T00:13:50;5.20;99.90
9103;DHT22;4587;51.434;6.788;2023-04-06T00:16:16;5.10;99.90
9103;DHT22;4587;51.434;6.788;2023-04-06T00:18:42;5.10;99.90
9103;DHT22;4587;51.434;6.788;2023-04-06T00:21:07;5.10;99.90
9103;DHT22;4587;51.434;6.788;2023-04-06T00:23:33;5.10;99.90
9103;DHT22;4587;51.434;6.788;2023-04-06T00:25:59;5.00;99.90
9103;DHT22;4587;51.434;6.788;2023-04-06T00:28:24;5.00;99.90
9103;DHT22;4587;51.434;6.788;2023-04-06T00:30:55;5.00;99.90
9103;DHT22;4587;51.434;6.788;2023-04-06T00:33:22;4.90;99.90
9103;DHT22;4587;51.434;6.788;2023-04-06T00:35:48;4.90;99.90
9103;DHT22;4587;51.434;6.788;2023-04-06T00:38:14;4.90;99.90
9103;DHT22;4587;51.434;6.788;2023-04-06T00:40:41;4.80;99.90
9103;DHT22;4587;51.434;6.788;2023-04-06T00:43:07;4.80;99.90
9103;DHT22;4587;51.434;6.788;2023-04-06T00:45:34;4.80;99.90
9103;DHT22;4587;51.434;6.788;2023-04-06T00:48:00;4.80;99.90
9103;DHT22;4587;51.434;6.788;2023-04-06T00:50:27;4.80;99.90
9103;DHT22;4587;51.434;6.788;2023-04-06T00:52:54;4.80;99.90
9103;DHT22;4587;51.434;6.788;2023-04-06T00:55:20;4.70;99.90
9103;DHT22;4587;51.434;6.788;2023-04-06T00:57:46;4.70;99.90
9103;DHT22;4587;51.434;6.788;2023-04-06T01:00:13;4.70;99.90
9103;DHT22;4587;51.434;6.788;2023-04-06T01:02:39;4.70;99.90
9103;DHT22;4587;51.434;6.788;2023-04-06T01:05:05;4.70;99.90
9103;DHT22;4587;51.434;6.788;2023-04-06T01:07:31;4.70;99.90
9103;DHT22;4587;51.434;6.788;2023-04-06T01:09:57;4.70;99.90
9103;DHT22;4587;51.434;6.788;2023-04-06T01:12:23;4.70;99.90
9103;DHT22;4587;51.434;6.788;2023-04-06T01:14:48;4.60;99.90
9103;DHT22;4587;51.434;6.788;2023-04-06T01:17:14;4.50;99.90
9103;DHT22;4587;51.434;6.788;2023-04-06T01:19:40;4.50;99.90
9103;DHT22;4587;51.434;6.788;2023-04-06T01:22:06;4.40;99.90
9103;DHT22;4587;51.434;6.788;2023-04-06T01:24:32;4.40;99.90
9103;DHT22;4587;51.434;6.788;2023-04-06T01:26:58;4.30;99.90
9103;DHT22;4587;51.434;6.788;2023-04-06T01:29:24;4.30;99.90
9103;DHT22;4587;51.434;6.788;2023-04-06T01:31:50;4.30;99.90
9103;DHT22;4587;51.434;6.788;2023-04-06T01:34:16;4.30;99.90
9103;DHT22;4587;51.434;6.788;2023-04-06T01:36:41;4.40;99.90
9103;DHT22;4587;51.434;6.788;2023-04-06T01:39:07;4.40;99.90
9103;DHT22;4587;51.434;6.788;2023-04-06T01:41:33;4.40;99.90
9103;DHT22;4587;51.434;6.788;2023-04-06T01:43:59;4.30;99.90
9103;DHT22;4587;51.434;6.788;2023-04-06T01:46:24;4.30;99.90
9103;DHT22;4587;51.434;6.788;2023-04-06T01:48:50;4.30;99.90
9103;DHT22;4587;51.434;6.788;2023-04-06T01:51:16;4.40;99.90
9103;DHT22;4587;51.434;6.788;2023-04-06T01:53:42;4.40;99.90
9103;DHT22;4587;51.434;6.788;2023-04-06T01:56:08;4.40;99.90
9103;DHT22;4587;51.434;6.788;2023-04-06T01:58:33;4.40;99.90
9103;DHT22;4587;51.434;6.788;2023-04-06T02:00:59;4.40;99.90
9103;DHT22;4587;51.434;6.788;2023-04-06T02:03:25;4.50;99.90
9103;DHT22;4587;51.434;6.788;2023-04-06T02:05:51;4.50;99.90
9103;DHT22;4587;51.434;6.788;2023-04-06T02:08:17;4.50;99.90
9103;DHT22;4587;51.434;6.788;2023-04-06T02:10:42;4.50;99.90
9103;DHT22;4587;51.434;6.788;2023-04-06T02:13:08;4.50;99.90
9103;DHT22;4587;51.434;6.788;2023-04-06T02:15:34;4.60;99.90
9103;DHT22;4587;51.434;6.788;2023-04-06T02:18:00;4.50;99.90
9103;DHT22;4587;51.434;6.788;2023-04-06T02:20:26;4.50;99.90
9103;DHT22;4587;51.434;6.788;2023-04-06T02:22:51;4.40;99.90
9103;DHT22;4587;51.434;6.788;2023-04-06T02:25:17;4.40;99.90
9103;DHT22;4587;51.434;6.788;2023-04-06T02:27:43;4.50;99.90
9103;DHT22;4587;51.434;6.788;2023-04-06T02:30:09;4.60;99.90
9103;DHT22;4587;51.434;6.788;2023-04-06T02:32:35;4.50;99.90
9103;DHT22;4587;51.434;6.788;2023-04-06T02:35:00;4.50;99.90
9103;DHT22;4587;51.434;6.788;2023-04-06T02:37:26;4.50;99.90
9103;DHT22;4587;51.434;6.788;2023-04-06T02:39:52;4.40;99.90
9103;DHT22;4587;51.434;6.788;2023-04-06T02:42:17;4.30;99.90
9103;DHT22;4587;51.434;6.788;2023-04-06T02:44:43;4.30;99.90
9103;DHT22;4587;51.434;6.788;2023-04-06T02:47:09;4.30;99.90
9103;DHT22;4587;51.434;6.788;2023-04-06T02:49:35;4.40;99.90
9103;DHT22;4587;51.434;6.788;2023-04-06T02:52:01;4.40;99.90
9103;DHT22;4587;51.434;6.788;2023-04-06T02:54:27;4.30;99.90
9103;DHT22;4587;51.434;6.788;2023-04-06T02:56:53;4.30;99.90
9103;DHT22;4587;51.434;6.788;2023-04-06T02:59:18;4.40;99.90
9103;DHT22;4587;51.434;6.788;2023-04-06T03:01:44;4.60;99.90
9103;DHT22;4587;51.434;6.788;2023-04-06T03:04:10;4.50;99.90
9103;DHT22;4587;51.434;6.788;2023-04-06T03:06:36;4.40;99.90
9103;DHT22;4587;51.434;6.788;2023-04-06T03:09:02;4.40;99.90
9103;DHT22;4587;51.434;6.788;2023-04-06T03:11:28;4.40;99.90
9103;DHT22;4587;51.434;6.788;2023-04-06T03:13:53;4.30;99.90
9103;DHT22;4587;51.434;6.788;2023-04-06T03:16:19;4.30;99.90
9103;DHT22;4587;51.434;6.788;2023-04-06T03:18:45;4.20;99.90
9103;DHT22;4587;51.434;6.788;2023-04-06T03:21:12;4.20;99.90
9103;DHT22;4587;51.434;6.788;2023-04-06T03:23:40;4.10;99.90
9103;DHT22;4587;51.434;6.788;2023-04-06T03:26:06;4.20;99.90
9103;DHT22;4587;51.434;6.788;2023-04-06T03:28:32;4.20;99.90
9103;DHT22;4587;51.434;6.788;2023-04-06T03:30:57;4.20;99.90
9103;DHT22;4587;51.434;6.788;2023-04-06T03:33:23;4.20;99.90
9103;DHT22;4587;51.434;6.788;2023-04-06T03:35:49;4.20;99.90
9103;DHT22;4587;51.434;6.788;2023-04-06T03:38:15;4.30;99.90
9103;DHT22;4587;51.434;6.788;2023-04-06T03:40:41;4.30;99.90
9103;DHT22;4587;51.434;6.788;2023-04-06T03:43:08;4.30;99.90
9103;DHT22;4587;51.434;6.788;2023-04-06T03:45:34;4.30;99.90
9103;DHT22;4587;51.434;6.788;2023-04-06T03:48:00;4.30;99.90
9103;DHT22;4587;51.434;6.788;2023-04-06T03:50:26;4.30;99.90
9103;DHT22;4587;51.434;6.788;2023-04-06T03:52:51;4.20;99.90
9103;DHT22;4587;51.434;6.788;2023-04-06T03:55:17;4.30;99.90
9103;DHT22;4587;51.434;6.788;2023-04-06T03:57:43;4.30;99.90
9103;DHT22;4587;51.434;6.788;2023-04-06T04:00:09;4.20;99.90
9103;DHT22;4587;51.434;6.788;2023-04-06T04:02:35;4.10;99.90
9103;DHT22;4587;51.434;6.788;2023-04-06T04:05:01;4.10;99.90
9103;DHT22;4587;51.434;6.788;2023-04-06T04:07:26;4.10;99.90
9103;DHT22;4587;51.434;6.788;2023-04-06T04:09:52;4.20;99.90
9103;DHT22;4587;51.434;6.788;2023-04-06T04:12:18;4.30;99.90
9103;DHT22;4587;51.434;6.788;2023-04-06T04:14:43;4.30;99.90
9103;DHT22;4587;51.434;6.788;2023-04-06T04:17:09;4.30;99.90
9103;DHT22;4587;51.434;6.788;2023-04-06T04:19:35;4.50;99.90
9103;DHT22;4587;51.434;6.788;2023-04-06T04:22:01;4.50;99.90
9103;DHT22;4587;51.434;6.788;2023-04-06T04:24:29;4.40;99.90
9103;DHT22;4587;51.434;6.788;2023-04-06T04:26:55;4.30;99.90
9103;DHT22;4587;51.434;6.788;2023-04-06T04:29:22;4.30;99.90
9103;DHT22;4587;51.434;6.788;2023-04-06T04:31:49;4.30;99.90
9103;DHT22;4587;51.434;6.788;2023-04-06T04:34:15;4.30;99.90
9103;DHT22;4587;51.434;6.788;2023-04-06T04:36:41;4.30;99.90
9103;DHT22;4587;51.434;6.788;2023-04-06T04:39:09;4.30;99.90
9103;DHT22;4587;51.434;6.788;2023-04-06T04:41:35;4.20;99.90
9103;DHT22;4587;51.434;6.788;2023-04-06T04:44:01;4.30;99.90
9103;DHT22;4587;51.434;6.788;2023-04-06T04:46:27;4.20;99.90
9103;DHT22;4587;51.434;6.788;2023-04-06T04:48:53;4.40;99.90
9103;DHT22;4587;51.434;6.788;2023-04-06T04:51:18;4.50;99.90
9103;DHT22;4587;51.434;6.788;2023-04-06T04:53:45;4.50;99.90
9103;DHT22;4587;51.434;6.788;2023-04-06T04:56:11;4.50;99.90
9103;DHT22;4587;51.434;6.788;2023-04-06T04:58:36;4.60;99.90
9103;DHT22;4587;51.434;6.788;2023-04-06T05:01:02;4.60;99.90
9103;DHT22;4587;51.434;6.788;2023-04-06T05:03:28;4.50;99.90
9103;DHT22;4587;51.434;6.788;2023-04-06T05:05:54;4.50;99.90
9103;DHT22;4587;51.434;6.788;2023-04-06T05:08:20;4.60;99.90
9103;DHT22;4587;51.434;6.788;2023-04-06T05:10:46;4.60;99.90
9103;DHT22;4587;51.434;6.788;2023-04-06T05:13:13;4.50;99.90
9103;DHT22;4587;51.434;6.788;2023-04-06T05:15:40;4.70;99.90
9103;DHT22;4587;51.434;6.788;2023-04-06T05:18:07;4.60;99.90
9103;DHT22;4587;51.434;6.788;2023-04-06T05:20:34;4.70;99.90
9103;DHT22;4587;51.434;6.788;2023-04-06T05:23:00;4.60;99.90
9103;DHT22;4587;51.434;6.788;2023-04-06T05:25:25;4.70;99.90
9103;DHT22;4587;51.434;6.788;2023-04-06T05:27:52;4.90;99.90
9103;DHT22;4587;51.434;6.788;2023-04-06T05:30:17;4.80;99.90
9103;DHT22;4587;51.434;6.788;2023-04-06T05:32:43;4.80;99.90
9103;DHT22;4587;51.434;6.788;2023-04-06T05:35:10;4.80;99.90
9103;DHT22;4587;51.434;6.788;2023-04-06T05:37:36;4.90;99.90
9103;DHT22;4587;51.434;6.788;2023-04-06T05:40:02;4.90;99.90
9103;DHT22;4587;51.434;6.788;2023-04-06T05:42:28;5.00;99.90
9103;DHT22;4587;51.434;6.788;2023-04-06T05:45:02;5.10;99.90
9103;DHT22;4587;51.434;6.788;2023-04-06T05:47:28;5.20;99.90
9103;DHT22;4587;51.434;6.788;2023-04-06T05:49:53;5.20;99.90
9103;DHT22;4587;51.434;6.788;2023-04-06T05:52:19;5.40;99.90
9103;DHT22;4587;51.434;6.788;2023-04-06T05:54:45;5.50;99.90
9103;DHT22;4587;51.434;6.788;2023-04-06T05:57:10;5.80;99.90
9103;DHT22;4587;51.434;6.788;2023-04-06T05:59:36;6.00;99.90
9103;DHT22;4587;51.434;6.788;2023-04-06T06:02:02;6.10;99.90
9103;DHT22;4587;51.434;6.788;2023-04-06T06:04:27;6.40;99.90
9103;DHT22;4587;51.434;6.788;2023-04-06T06:06:53;7.20;99.90
9103;DHT22;4587;51.434;6.788;2023-04-06T06:09:19;7.50;99.90
9103;DHT22;4587;51.434;6.788;2023-04-06T06:11:44;7.90;99.90
9103;DHT22;4587;51.434;6.788;2023-04-06T06:14:10;8.10;99.90
9103;DHT22;4587;51.434;6.788;2023-04-06T06:16:36;8.20;99.10
9103;DHT22;4587;51.434;6.788;2023-04-06T06:19:02;8.40;98.70
9103;DHT22;4587;51.434;6.788;2023-04-06T06:21:28;8.50;98.30
9103;DHT22;4587;51.434;6.788;2023-04-06T06:23:53;8.50;98.50
9103;DHT22;4587;51.434;6.788;2023-04-06T06:26:20;8.70;97.80
9103;DHT22;4587;51.434;6.788;2023-04-06T06:28:45;8.80;97.50
9103;DHT22;4587;51.434;6.788;2023-04-06T06:31:11;9.00;97.20
9103;DHT22;4587;51.434;6.788;2023-04-06T06:33:37;9.10;97.00
9103;DHT22;4587;51.434;6.788;2023-04-06T06:36:03;9.30;96.70
9103;DHT22;4587;51.434;6.788;2023-04-06T06:38:29;9.40;96.30
9103;DHT22;4587;51.434;6.788;2023-04-06T06:40:54;9.60;96.00
9103;DHT22;4587;51.434;6.788;2023-04-06T06:43:20;9.90;95.60
9103;DHT22;4587;51.434;6.788;2023-04-06T06:45:46;10.80;94.30
9103;DHT22;4587;51.434;6.788;2023-04-06T06:48:12;11.60;92.80
9103;DHT22;4587;51.434;6.788;2023-04-06T06:50:38;12.40;91.60
9103;DHT22;4587;51.434;6.788;2023-04-06T06:53:03;13.30;89.00
9103;DHT22;4587;51.434;6.788;2023-04-06T06:55:29;13.90;84.70
9103;DHT22;4587;51.434;6.788;2023-04-06T06:57:55;14.70;82.90
9103;DHT22;4587;51.434;6.788;2023-04-06T07:00:21;15.60;79.20
9103;DHT22;4587;51.434;6.788;2023-04-06T07:02:47;16.20;73.70
9103;DHT22;4587;51.434;6.788;2023-04-06T07:05:13;16.90;72.00
9103;DHT22;4587;51.434;6.788;2023-04-06T07:07:39;17.50;67.70
9103;DHT22;4587;51.434;6.788;2023-04-06T07:10:05;18.10;64.70
9103;DHT22;4587;51.434;6.788;2023-04-06T07:12:31;18.40;61.30
9103;DHT22;4587;51.434;6.788;2023-04-06T07:14:57;18.90;60.00
9103;DHT22;4587;51.434;6.788;2023-04-06T07:17:23;18.90;57.30
9103;DHT22;4587;51.434;6.788;2023-04-06T07:19:48;19.10;56.80
9103;DHT22;4587;51.434;6.788;2023-04-06T07:22:14;19.00;56.10
9103;DHT22;4587;51.434;6.788;2023-04-06T07:24:40;19.20;55.40
9103;DHT22;4587;51.434;6.788;2023-04-06T07:27:06;19.60;55.20
9103;DHT22;4587;51.434;6.788;2023-04-06T07:29:32;20.00;54.00
9103;DHT22;4587;51.434;6.788;2023-04-06T07:31:58;20.20;53.00
9103;DHT22;4587;51.434;6.788;2023-04-06T07:34:23;20.50;52.70
9103;DHT22;4587;51.434;6.788;2023-04-06T07:36:49;21.10;53.20
9103;DHT22;4587;51.434;6.788;2023-04-06T07:39:15;20.70;51.80
9103;DHT22;4587;51.434;6.788;2023-04-06T07:41:41;19.40;51.40
9103;DHT22;4587;51.434;6.788;2023-04-06T07:44:07;18.10;52.30
9103;DHT22;4587;51.434;6.788;2023-04-06T07:46:32;17.20;53.00
9103;DHT22;4587;51.434;6.788;2023-04-06T07:48:59;16.90;53.60
9103;DHT22;4587;51.434;6.788;2023-04-06T07:51:25;17.20;54.90
9103;DHT22;4587;51.434;6.788;2023-04-06T07:53:51;18.00;54.50
9103;DHT22;4587;51.434;6.788;2023-04-06T07:56:17;19.00;54.00
9103;DHT22;4587;51.434;6.788;2023-04-06T07:58:43;19.40;53.00
9103;DHT22;4587;51.434;6.788;2023-04-06T08:01:09;19.70;52.40
9103;DHT22;4587;51.434;6.788;2023-04-06T08:03:35;20.30;52.50
9103;DHT22;4587;51.434;6.788;2023-04-06T08:06:02;21.00;51.30
9103;DHT22;4587;51.434;6.788;2023-04-06T08:08:28;21.60;51.00
9103;DHT22;4587;51.434;6.788;2023-04-06T08:10:54;21.60;49.70
9103;DHT22;4587;51.434;6.788;2023-04-06T08:13:20;21.50;49.30
9103;DHT22;4587;51.434;6.788;2023-04-06T08:15:46;21.70;50.50
9103;DHT22;4587;51.434;6.788;2023-04-06T08:18:12;21.60;49.30
9103;DHT22;4587;51.434;6.788;2023-04-06T08:20:39;21.40;49.80
9103;DHT22;4587;51.434;6.788;2023-04-06T08:23:05;20.90;48.50
9103;DHT22;4587;51.434;6.788;2023-04-06T08:25:33;20.50;48.60
9103;DHT22;4587;51.434;6.788;2023-04-06T08:27:59;19.90;48.60
9103;DHT22;4587;51.434;6.788;2023-04-06T08:30:25;19.60;50.40
9103;DHT22;4587;51.434;6.788;2023-04-06T08:32:51;18.90;49.80
9103;DHT22;4587;51.434;6.788;2023-04-06T08:35:17;18.10;50.40
9103;DHT22;4587;51.434;6.788;2023-04-06T08:37:43;17.70;51.50
9103;DHT22;4587;51.434;6.788;2023-04-06T08:40:09;17.30;50.80
9103;DHT22;4587;51.434;6.788;2023-04-06T08:42:40;17.00;51.50
9103;DHT22;4587;51.434;6.788;2023-04-06T08:45:08;16.90;52.20
9103;DHT22;4587;51.434;6.788;2023-04-06T08:47:35;16.80;52.40
9103;DHT22;4587;51.434;6.788;2023-04-06T08:50:03;16.70;53.00
9103;DHT22;4587;51.434;6.788;2023-04-06T08:52:32;16.60;52.50
9103;DHT22;4587;51.434;6.788;2023-04-06T08:54:59;16.40;52.60
9103;DHT22;4587;51.434;6.788;2023-04-06T08:57:26;16.30;52.20
9103;DHT22;4587;51.434;6.788;2023-04-06T08:59:52;16.30;52.10
9103;DHT22;4587;51.434;6.788;2023-04-06T09:02:19;16.30;53.90
9103;DHT22;4587;51.434;6.788;2023-04-06T09:04:49;16.30;53.70
9103;DHT22;4587;51.434;6.788;2023-04-06T09:07:16;16.20;53.90
9103;DHT22;4587;51.434;6.788;2023-04-06T09:09:42;16.30;53.30
9103;DHT22;4587;51.434;6.788;2023-04-06T09:12:33;16.30;53.40
9103;DHT22;4587;51.434;6.788;2023-04-06T09:15:00;16.20;53.80
9103;DHT22;4587;51.434;6.788;2023-04-06T09:17:28;16.20;54.40
9103;DHT22;4587;51.434;6.788;2023-04-06T09:19:54;16.00;52.60
9103;DHT22;4587;51.434;6.788;2023-04-06T09:22:21;16.10;53.90
9103;DHT22;4587;51.434;6.788;2023-04-06T09:24:49;16.10;53.60
9103;DHT22;4587;51.434;6.788;2023-04-06T09:27:16;16.20;53.60
9103;DHT22;4587;51.434;6.788;2023-04-06T09:29:43;16.10;53.70
9103;DHT22;4587;51.434;6.788;2023-04-06T09:32:09;16.10;54.40
9103;DHT22;4587;51.434;6.788;2023-04-06T09:34:37;16.20;54.40
9103;DHT22;4587;51.434;6.788;2023-04-06T09:37:14;16.10;53.70
9103;DHT22;4587;51.434;6.788;2023-04-06T09:39:40;16.00;53.70
9103;DHT22;4587;51.434;6.788;2023-04-06T09:42:06;16.00;54.30
9103;DHT22;4587;51.434;6.788;2023-04-06T09:44:31;16.00;54.10
9103;DHT22;4587;51.434;6.788;2023-04-06T09:46:57;16.00;54.10
9103;DHT22;4587;51.434;6.788;2023-04-06T09:49:24;16.00;53.70
9103;DHT22;4587;51.434;6.788;2023-04-06T09:52:01;16.00;54.30
9103;DHT22;4587;51.434;6.788;2023-04-06T09:54:31;16.10;54.90
9103;DHT22;4587;51.434;6.788;2023-04-06T09:59:58;16.10;53.70
9103;DHT22;4587;51.434;6.788;2023-04-06T10:02:57;16.10;54.40
9103;DHT22;4587;51.434;6.788;2023-04-06T10:05:40;16.20;54.40
9103;DHT22;4587;51.434;6.788;2023-04-06T10:08:10;16.30;53.80
9103;DHT22;4587;51.434;6.788;2023-04-06T10:10:36;16.20;53.60
9103;DHT22;4587;51.434;6.788;2023-04-06T10:13:04;16.10;53.10
9103;DHT22;4587;51.434;6.788;2023-04-06T10:15:30;16.10;53.40
9103;DHT22;4587;51.434;6.788;2023-04-06T10:17:59;15.90;53.70
9103;DHT22;4587;51.434;6.788;2023-04-06T10:20:31;15.90;54.20
9103;DHT22;4587;51.434;6.788;2023-04-06T10:25:58;15.90;55.10
9103;DHT22;4587;51.434;6.788;2023-04-06T10:28:24;16.10;56.10
9103;DHT22;4587;51.434;6.788;2023-04-06T10:30:58;16.20;56.20
9103;DHT22;4587;51.434;6.788;2023-04-06T10:33:24;16.30;56.20
9103;DHT22;4587;51.434;6.788;2023-04-06T10:35:49;16.30;55.30
9103;DHT22;4587;51.434;6.788;2023-04-06T10:38:15;16.20;54.90
9103;DHT22;4587;51.434;6.788;2023-04-06T10:40:45;16.20;55.70
9103;DHT22;4587;51.434;6.788;2023-04-06T10:43:19;16.20;56.20
9103;DHT22;4587;51.434;6.788;2023-04-06T10:45:56;16.20;56.20
9103;DHT22;4587;51.434;6.788;2023-04-06T10:48:23;16.20;56.00
9103;DHT22;4587;51.434;6.788;2023-04-06T10:50:51;16.30;56.60
9103;DHT22;4587;51.434;6.788;2023-04-06T10:53:35;16.30;57.50
9103;DHT22;4587;51.434;6.788;2023-04-06T10:56:02;16.40;57.10
9103;DHT22;4587;51.434;6.788;2023-04-06T10:58:29;16.40;58.10
9103;DHT22;4587;51.434;6.788;2023-04-06T11:00:56;16.40;56.90
9103;DHT22;4587;51.434;6.788;2023-04-06T11:03:22;16.50;57.30
9103;DHT22;4587;51.434;6.788;2023-04-06T11:05:49;16.40;57.80
9103;DHT22;4587;51.434;6.788;2023-04-06T11:08:26;16.40;57.80
9103;DHT22;4587;51.434;6.788;2023-04-06T11:11:03;16.40;57.80
9103;DHT22;4587;51.434;6.788;2023-04-06T11:13:43;16.30;58.10
9103;DHT22;4587;51.434;6.788;2023-04-06T11:16:26;16.30;58.50
9103;DHT22;4587;51.434;6.788;2023-04-06T11:21:20;16.10;57.80
9103;DHT22;4587;51.434;6.788;2023-04-06T11:24:23;16.00;57.80
9103;DHT22;4587;51.434;6.788;2023-04-06T11:26:51;16.00;59.00
9103;DHT22;4587;51.434;6.788;2023-04-06T11:29:24;16.10;59.00
9103;DHT22;4587;51.434;6.788;2023-04-06T11:31:59;16.10;60.00
9103;DHT22;4587;51.434;6.788;2023-04-06T11:34:25;16.10;60.00
9103;DHT22;4587;51.434;6.788;2023-04-06T11:36:57;16.10;60.70
9103;DHT22;4587;51.434;6.788;2023-04-06T11:39:28;16.10;61.30
9103;DHT22;4587;51.434;6.788;2023-04-06T11:41:58;16.10;61.30
9103;DHT22;4587;51.434;6.788;2023-04-06T11:46:56;16.10;61.20
9103;DHT22;4587;51.434;6.788;2023-04-06T11:49:29;16.20;62.80
9103;DHT22;4587;51.434;6.788;2023-04-06T11:51:56;16.20;63.20
9103;DHT22;4587;51.434;6.788;2023-04-06T11:54:37;16.10;64.00
9103;DHT22;4587;51.434;6.788;2023-04-06T11:57:07;16.00;65.50
9103;DHT22;4587;51.434;6.788;2023-04-06T11:59:33;16.00;63.80
9103;DHT22;4587;51.434;6.788;2023-04-06T12:02:00;15.90;64.50
9103;DHT22;4587;51.434;6.788;2023-04-06T12:04:26;15.90;65.10
9103;DHT22;4587;51.434;6.788;2023-04-06T12:06:52;15.80;64.20
9103;DHT22;4587;51.434;6.788;2023-04-06T12:09:18;15.70;64.80
9103;DHT22;4587;51.434;6.788;2023-04-06T12:11:44;15.60;64.00
9103;DHT22;4587;51.434;6.788;2023-04-06T12:14:11;15.50;65.40
9103;DHT22;4587;51.434;6.788;2023-04-06T12:16:37;15.50;65.90
9103;DHT22;4587;51.434;6.788;2023-04-06T12:19:03;15.50;66.80
9103;DHT22;4587;51.434;6.788;2023-04-06T12:21:29;15.50;67.00
9103;DHT22;4587;51.434;6.788;2023-04-06T12:23:59;15.50;66.60
9103;DHT22;4587;51.434;6.788;2023-04-06T12:26:26;15.50;66.00
9103;DHT22;4587;51.434;6.788;2023-04-06T12:28:52;15.60;65.90
9103;DHT22;4587;51.434;6.788;2023-04-06T12:31:20;15.50;65.40
9103;DHT22;4587;51.434;6.788;2023-04-06T12:33:47;15.60;66.30
9103;DHT22;4587;51.434;6.788;2023-04-06T12:36:14;15.50;66.90
9103;DHT22;4587;51.434;6.788;2023-04-06T12:38:41;15.60;67.10
9103;DHT22;4587;51.434;6.788;2023-04-06T12:41:07;15.60;67.30
9103;DHT22;4587;51.434;6.788;2023-04-06T12:43:33;15.60;68.50
9103;DHT22;4587;51.434;6.788;2023-04-06T12:45:59;15.70;68.40
9103;DHT22;4587;51.434;6.788;2023-04-06T12:48:25;15.70;67.50
9103;DHT22;4587;51.434;6.788;2023-04-06T12:51:00;15.70;67.90
9103;DHT22;4587;51.434;6.788;2023-04-06T12:53:26;15.60;67.10
9103;DHT22;4587;51.434;6.788;2023-04-06T12:55:53;15.60;67.90
9103;DHT22;4587;51.434;6.788;2023-04-06T12:58:20;15.60;68.40
9103;DHT22;4587;51.434;6.788;2023-04-06T13:00:49;15.50;68.10
9103;DHT22;4587;51.434;6.788;2023-04-06T13:03:16;15.50;68.80
9103;DHT22;4587;51.434;6.788;2023-04-06T13:05:49;15.60;68.40
9103;DHT22;4587;51.434;6.788;2023-04-06T13:08:16;15.40;68.50
9103;DHT22;4587;51.434;6.788;2023-04-06T13:10:50;15.40;70.00
9103;DHT22;4587;51.434;6.788;2023-04-06T13:13:16;15.30;69.80
9103;DHT22;4587;51.434;6.788;2023-04-06T13:15:42;15.30;70.50
9103;DHT22;4587;51.434;6.788;2023-04-06T13:18:08;15.30;70.80
9103;DHT22;4587;51.434;6.788;2023-04-06T13:20:35;15.30;71.10
9103;DHT22;4587;51.434;6.788;2023-04-06T13:23:01;15.20;70.90
9103;DHT22;4587;51.434;6.788;2023-04-06T13:25:27;15.10;71.20
9103;DHT22;4587;51.434;6.788;2023-04-06T13:27:57;15.20;72.60
9103;DHT22;4587;51.434;6.788;2023-04-06T13:30:23;15.20;73.10
9103;DHT22;4587;51.434;6.788;2023-04-06T13:32:48;15.20;72.50
9103;DHT22;4587;51.434;6.788;2023-04-06T13:35:14;15.20;72.10
9103;DHT22;4587;51.434;6.788;2023-04-06T13:37:40;15.20;73.00
9103;DHT22;4587;51.434;6.788;2023-04-06T13:40:06;15.20;73.40
9103;DHT22;4587;51.434;6.788;2023-04-06T13:42:32;15.10;73.50
9103;DHT22;4587;51.434;6.788;2023-04-06T13:45:00;15.10;74.50
9103;DHT22;4587;51.434;6.788;2023-04-06T13:47:26;15.00;76.10
9103;DHT22;4587;51.434;6.788;2023-04-06T13:49:53;14.90;76.80
9103;DHT22;4587;51.434;6.788;2023-04-06T13:52:19;14.80;77.90
9103;DHT22;4587;51.434;6.788;2023-04-06T13:54:45;14.80;79.70
9103;DHT22;4587;51.434;6.788;2023-04-06T13:57:11;14.80;82.30
9103;DHT22;4587;51.434;6.788;2023-04-06T13:59:38;14.60;83.70
9103;DHT22;4587;51.434;6.788;2023-04-06T14:02:06;14.60;86.00
9103;DHT22;4587;51.434;6.788;2023-04-06T14:04:32;14.60;87.00
9103;DHT22;4587;51.434;6.788;2023-04-06T14:06:59;14.50;89.60
9103;DHT22;4587;51.434;6.788;2023-04-06T14:09:25;14.40;91.00
9103;DHT22;4587;51.434;6.788;2023-04-06T14:11:51;14.40;92.30
9103;DHT22;4587;51.434;6.788;2023-04-06T14:14:17;14.40;93.30
9103;DHT22;4587;51.434;6.788;2023-04-06T14:16:43;14.40;95.40
9103;DHT22;4587;51.434;6.788;2023-04-06T14:19:13;14.30;97.60
9103;DHT22;4587;51.434;6.788;2023-04-06T14:21:41;14.20;99.80
9103;DHT22;4587;51.434;6.788;2023-04-06T14:24:07;14.10;99.90
9103;DHT22;4587;51.434;6.788;2023-04-06T14:26:37;14.10;99.90
9103;DHT22;4587;51.434;6.788;2023-04-06T14:29:04;14.00;99.90
9103;DHT22;4587;51.434;6.788;2023-04-06T14:31:39;14.10;99.90
9103;DHT22;4587;51.434;6.788;2023-04-06T14:34:05;14.00;99.90
9103;DHT22;4587;51.434;6.788;2023-04-06T14:36:32;14.00;99.90
9103;DHT22;4587;51.434;6.788;2023-04-06T14:39:05;14.00;99.90
9103;DHT22;4587;51.434;6.788;2023-04-06T14:41:31;14.10;99.90
9103;DHT22;4587;51.434;6.788;2023-04-06T14:43:57;14.10;99.90
9103;DHT22;4587;51.434;6.788;2023-04-06T14:46:23;14.10;99.90
9103;DHT22;4587;51.434;6.788;2023-04-06T14:48:49;14.00;99.90
9103;DHT22;4587;51.434;6.788;2023-04-06T14:51:15;14.10;99.90
9103;DHT22;4587;51.434;6.788;2023-04-06T14:53:40;14.00;99.90
9103;DHT22;4587;51.434;6.788;2023-04-06T14:56:06;14.00;99.90
9103;DHT22;4587;51.434;6.788;2023-04-06T14:58:32;13.90;99.90
9103;DHT22;4587;51.434;6.788;2023-04-06T15:00:59;13.70;99.90
9103;DHT22;4587;51.434;6.788;2023-04-06T15:03:26;13.50;99.90
9103;DHT22;4587;51.434;6.788;2023-04-06T15:05:55;13.40;99.90
9103;DHT22;4587;51.434;6.788;2023-04-06T15:08:44;13.30;99.90
9103;DHT22;4587;51.434;6.788;2023-04-06T15:11:17;13.20;99.90
9103;DHT22;4587;51.434;6.788;2023-04-06T15:13:42;13.10;99.90
9103;DHT22;4587;51.434;6.788;2023-04-06T15:16:08;13.00;99.90
9103;DHT22;4587;51.434;6.788;2023-04-06T15:18:34;12.90;99.90
9103;DHT22;4587;51.434;6.788;2023-04-06T15:21:00;12.80;99.90
9103;DHT22;4587;51.434;6.788;2023-04-06T15:23:26;12.80;99.90
9103;DHT22;4587;51.434;6.788;2023-04-06T15:25:55;12.70;99.90
9103;DHT22;4587;51.434;6.788;2023-04-06T15:28:21;12.70;99.90
9103;DHT22;4587;51.434;6.788;2023-04-06T15:30:56;12.60;99.90
9103;DHT22;4587;51.434;6.788;2023-04-06T15:33:23;12.50;99.90
9103;DHT22;4587;51.434;6.788;2023-04-06T15:35:49;12.40;99.90
9103;DHT22;4587;51.434;6.788;2023-04-06T15:38:14;12.40;99.90
9103;DHT22;4587;51.434;6.788;2023-04-06T15:40:46;12.30;99.90
9103;DHT22;4587;51.434;6.788;2023-04-06T15:43:20;12.20;99.90
9103;DHT22;4587;51.434;6.788;2023-04-06T15:45:52;12.10;99.90
9103;DHT22;4587;51.434;6.788;2023-04-06T15:48:18;12.00;99.90
9103;DHT22;4587;51.434;6.788;2023-04-06T15:50:43;12.00;99.90
9103;DHT22;4587;51.434;6.788;2023-04-06T15:53:09;11.90;99.90
9103;DHT22;4587;51.434;6.788;2023-04-06T15:55:35;11.90;99.90
9103;DHT22;4587;51.434;6.788;2023-04-06T15:58:00;11.70;99.90
9103;DHT22;4587;51.434;6.788;2023-04-06T16:00:26;11.70;99.90
9103;DHT22;4587;51.434;6.788;2023-04-06T16:03:15;11.70;99.90
9103;DHT22;4587;51.434;6.788;2023-04-06T16:05:43;11.50;99.90
9103;DHT22;4587;51.434;6.788;2023-04-06T16:08:09;11.50;99.90
9103;DHT22;4587;51.434;6.788;2023-04-06T16:10:35;11.40;99.90
9103;DHT22;4587;51.434;6.788;2023-04-06T16:13:01;11.30;99.90
9103;DHT22;4587;51.434;6.788;2023-04-06T16:15:26;11.30;99.90
9103;DHT22;4587;51.434;6.788;2023-04-06T16:17:52;11.20;99.90
9103;DHT22;4587;51.434;6.788;2023-04-06T16:20:18;11.20;99.90